Time;durP1;ratioP1;P1;durP2;ratioP2;P2;SDS_P1;SDS_P2;PMS_P1;PMS_P2;Temp;Humidity;BMP_temperature;BMP_pressure;BME280_temperature;BME280_humidity;BME280_pressure;Samples;Min_cycle;Max_cycle;Signal;HPM_P1;HPM_P2
2024/03/31 00:02:19;;;;;;;;;;;;;;;16.72;45.98;100820.72;5093076;28;1054;-45
2024/03/31 00:04:48;;;;;;;;;;;;;;;17.56;47.44;100814.09;5097981;28;1061;-47
2024/03/31 00:07:14;;;;;;;;;;;;;;;17.07;48.24;100816.38;5097690;28;1066;-48
2024/03/31 00:09:39;;;;;;;;;;;;;;;16.80;47.66;100818.53;5090527;28;1154;-47
2024/03/31 00:12:05;;;;;;;;;;;;;;;16.62;46.89;100823.47;5077643;28;1063;-48
2024/03/31 00:14:32;;;;;;;;;;;;;;;16.90;47.33;100815.81;5085967;28;1969;-44
2024/03/31 00:16:58;;;;;;;;;;;;;;;17.34;48.14;100809.72;5097949;28;1046;-45
2024/03/31 00:19:23;;;;;;;;;;;;;;;16.90;48.11;100811.16;5096047;28;1185;-46
2024/03/31 00:21:49;;;;;;;;;;;;;;;18.04;47.90;100811.72;5097712;28;1109;-45
2024/03/31 00:24:15;;;;;;;;;;;;;;;17.22;48.94;100804.56;5089438;28;1169;-47
2024/03/31 00:26:41;;;;;;;;;;;;;;;16.86;48.26;100814.72;5092507;28;1106;-45
2024/03/31 00:29:06;;;;;;;;;;;;;;;17.28;48.42;100819.09;5098226;28;1180;-49
2024/03/31 00:31:32;;;;;;;;;;;;;;;17.36;48.79;100815.78;5092553;28;1026;-48
2024/03/31 00:33:57;;;;;;;;;;;;;;;17.02;48.40;100812.81;5097711;28;1977;-46
2024/03/31 00:36:23;;;;;;;;;;;;;;;18.15;48.07;100808.94;5097467;28;1027;-48
2024/03/31 00:38:48;;;;;;;;;;;;;;;17.42;48.73;100803.69;5097646;28;1059;-45
2024/03/31 00:41:13;;;;;;;;;;;;;;;17.05;48.21;100801.25;5097750;28;1192;-46
2024/03/31 00:43:39;;;;;;;;;;;;;;;17.15;48.09;100792.19;5072244;28;1232;-45
2024/03/31 00:46:05;;;;;;;;;;;;;;;17.64;48.91;100799.75;5073929;28;1646;-49
2024/03/31 00:48:31;;;;;;;;;;;;;;;17.10;48.47;100807.56;5079667;28;1251;-46
2024/03/31 00:50:56;;;;;;;;;;;;;;;16.91;47.81;100798.25;5078058;28;1310;-44
2024/03/31 00:53:22;;;;;;;;;;;;;;;17.28;47.75;100802.63;5076997;28;1977;-43
2024/03/31 00:55:47;;;;;;;;;;;;;;;17.50;48.61;100794.03;5085677;28;1095;-45
2024/03/31 00:58:13;;;;;;;;;;;;;;;17.04;48.29;100797.69;5097108;28;1042;-46
2024/03/31 01:00:39;;;;;;;;;;;;;;;16.85;47.49;100793.84;5078904;28;1526;-48
2024/03/31 01:03:04;;;;;;;;;;;;;;;18.15;47.63;100793.25;5096797;28;1097;-48
2024/03/31 01:05:30;;;;;;;;;;;;;;;17.18;48.63;100786.97;5079062;28;1361;-49
2024/03/31 01:07:55;;;;;;;;;;;;;;;16.96;47.97;100783.69;5071094;28;1141;-44
2024/03/31 01:10:21;;;;;;;;;;;;;;;16.99;48.04;100794.13;5090534;28;1145;-45
2024/03/31 01:12:46;;;;;;;;;;;;;;;17.83;48.49;100786.22;5066362;28;1210;-44
2024/03/31 01:15:17;;;;;;;;;;;;;;;17.17;48.28;100792.75;5078836;28;1972;-46
2024/03/31 01:17:42;;;;;;;;;;;;;;;17.79;48.63;100796.97;5078058;28;1058;-48
2024/03/31 01:20:08;;;;;;;;;;;;;;;17.45;48.78;100797.63;5078243;28;1027;-48
2024/03/31 01:22:33;;;;;;;;;;;;;;;17.06;48.21;100792.75;5079054;28;1118;-47
2024/03/31 01:24:59;;;;;;;;;;;;;;;16.91;47.34;100790.00;5065293;28;1158;-44
2024/03/31 01:27:24;;;;;;;;;;;;;;;17.66;47.84;100789.31;5096586;28;1074;-47
2024/03/31 01:29:50;;;;;;;;;;;;;;;17.00;48.36;100793.84;5078813;28;1295;-45
2024/03/31 01:32:15;;;;;;;;;;;;;;;17.93;48.42;100793.63;5096178;28;878;-44
2024/03/31 01:34:44;;;;;;;;;;;;;;;17.84;48.89;100781.53;5096342;28;1910;-45
2024/03/31 01:37:10;;;;;;;;;;;;;;;17.26;48.78;100782.81;5079070;28;1022;-45
2024/03/31 01:39:35;;;;;;;;;;;;;;;16.92;48.17;100780.66;5096000;28;1113;-44
2024/03/31 01:42:01;;;;;;;;;;;;;;;17.81;48.64;100787.59;5096740;28;1104;-45
2024/03/31 01:44:26;;;;;;;;;;;;;;;17.28;49.02;100781.44;5069703;28;1132;-46
2024/03/31 01:46:52;;;;;;;;;;;;;;;16.91;48.28;100779.03;5096663;28;1066;-47
2024/03/31 01:49:17;;;;;;;;;;;;;;;17.62;48.51;100782.72;5065018;28;1476;-46
2024/03/31 01:51:43;;;;;;;;;;;;;;;17.02;48.43;100775.16;5089601;28;1110;-45
2024/03/31 01:54:08;;;;;;;;;;;;;;;17.09;47.99;100780.38;5090645;28;1921;-47
2024/03/31 01:56:34;;;;;;;;;;;;;;;17.74;48.39;100774.97;5070623;28;1447;-48
2024/03/31 01:58:59;;;;;;;;;;;;;;;17.12;48.36;100770.75;5090581;28;1055;-45
2024/03/31 02:01:25;;;;;;;;;;;;;;;16.96;47.99;100779.03;5096525;28;1089;-47
2024/03/31 02:03:50;;;;;;;;;;;;;;;17.64;48.19;100772.25;5078175;28;1090;-48
2024/03/31 02:06:16;;;;;;;;;;;;;;;17.04;48.17;100783.97;5078539;28;1137;-46
2024/03/31 02:08:41;;;;;;;;;;;;;;;17.71;48.51;100781.06;5086493;28;1128;-49
2024/03/31 02:11:07;;;;;;;;;;;;;;;17.49;48.74;100777.81;5078039;28;1204;-46
2024/03/31 02:13:32;;;;;;;;;;;;;;;17.13;47.89;100781.47;5096740;28;1960;-45
2024/03/31 02:15:58;;;;;;;;;;;;;;;16.92;47.31;100781.47;5082389;28;1590;-45
2024/03/31 02:18:24;;;;;;;;;;;;;;;16.80;46.68;100774.59;5082092;28;1244;-52
2024/03/31 02:20:49;;;;;;;;;;;;;;;17.46;47.87;100776.47;5065264;28;1093;-50
2024/03/31 02:23:15;;;;;;;;;;;;;;;17.00;48.02;100796.59;5093996;28;1158;-55
2024/03/31 02:25:40;;;;;;;;;;;;;;;18.55;47.85;100796.84;5100339;28;1221;-54
2024/03/31 02:28:06;;;;;;;;;;;;;;;17.74;49.19;100796.97;5100294;28;1157;-55
2024/03/31 02:30:32;;;;;;;;;;;;;;;17.27;48.47;100795.47;5081707;28;1412;-53
2024/03/31 02:32:58;;;;;;;;;;;;;;;17.08;47.70;100790.56;5071024;28;1165;-53
2024/03/31 02:35:23;;;;;;;;;;;;;;;16.85;47.11;100796.56;5086707;28;1961;-52
2024/03/31 02:37:49;;;;;;;;;;;;;;;16.82;46.49;100791.63;5068381;28;1216;-50
2024/03/31 02:40:15;;;;;;;;;;;;;;;17.90;48.24;100781.22;5099906;28;1109;-50
2024/03/31 02:42:41;;;;;;;;;;;;;;;17.33;48.21;100794.34;5068308;28;1169;-51
2024/03/31 02:45:06;;;;;;;;;;;;;;;17.27;48.51;100799.03;5081272;28;1315;-47
2024/03/31 02:47:32;;;;;;;;;;;;;;;18.03;48.55;100796.31;5081198;28;1198;-50
2024/03/31 02:50:01;;;;;;;;;;;;;;;17.34;48.73;100797.94;5068635;28;1146;-49
2024/03/31 02:52:26;;;;;;;;;;;;;;;17.42;48.99;100783.63;5081539;28;1161;-50
2024/03/31 02:54:52;;;;;;;;;;;;;;;17.67;48.88;100790.97;5099877;28;1902;-49
2024/03/31 02:57:18;;;;;;;;;;;;;;;17.16;48.54;100810.31;5087668;28;1078;-51
2024/03/31 02:59:46;;;;;;;;;;;;;;;18.06;48.55;100797.69;5099276;28;1045;-54
2024/03/31 03:02:13;;;;;;;;;;;;;;;17.39;48.88;100798.75;5099335;28;1097;-53
2024/03/31 03:04:39;;;;;;;;;;;;;;;17.10;48.18;100802.06;5080967;28;1250;-56
2024/03/31 03:07:04;;;;;;;;;;;;;;;17.04;47.05;100802.34;5099368;28;1134;-50
2024/03/31 03:09:30;;;;;;;;;;;;;;;16.87;46.66;100797.13;5087018;28;843;-50
2024/03/31 03:11:55;;;;;;;;;;;;;;;17.93;47.96;100810.13;5074245;28;1227;-51
2024/03/31 03:14:21;;;;;;;;;;;;;;;17.27;48.27;100806.47;5081072;28;1902;-52
2024/03/31 03:16:47;;;;;;;;;;;;;;;17.00;47.80;100796.59;5067821;28;1165;-51
2024/03/31 03:19:12;;;;;;;;;;;;;;;17.84;48.00;100803.53;5067531;28;1388;-53
2024/03/31 03:21:38;;;;;;;;;;;;;;;17.17;48.22;100799.06;5067434;28;1082;-50
2024/03/31 03:24:03;;;;;;;;;;;;;;;17.15;47.55;100803.97;5099045;28;1073;-48
2024/03/31 03:26:29;;;;;;;;;;;;;;;17.85;48.02;100810.69;5098177;28;1098;-50
2024/03/31 03:28:55;;;;;;;;;;;;;;;17.13;48.10;100806.19;5067635;28;1353;-54
2024/03/31 03:31:20;;;;;;;;;;;;;;;17.01;47.53;100806.50;5080682;28;1185;-56
2024/03/31 03:33:49;;;;;;;;;;;;;;;17.24;47.69;100799.59;5073673;28;1901;-57
2024/03/31 03:36:14;;;;;;;;;;;;;;;17.35;48.53;100811.38;5080349;28;1415;-57
2024/03/31 03:38:40;;;;;;;;;;;;;;;17.01;47.77;100800.16;5080592;28;1519;-59
2024/03/31 03:41:09;;;;;;;;;;;;;;;17.24;48.13;100799.59;5080138;28;1165;-56
2024/03/31 03:43:35;;;;;;;;;;;;;;;17.33;48.36;100808.09;5067945;28;1130;-57
2024/03/31 03:46:05;;;;;;;;;;;;;;;17.76;48.39;100805.75;5080310;28;1118;-54
2024/03/31 03:48:32;;;;;;;;;;;;;;;18.80;47.52;100815.13;5098688;28;1022;-54
2024/03/31 03:51:02;;;;;;;;;;;;;;;15.33;57.24;100819.38;5085089;28;1193;-52
2024/03/31 03:53:27;;;;;;;;;;;;;;;18.59;49.70;100817.22;5098265;28;1902;-54
2024/03/31 03:55:53;;;;;;;;;;;;;;;16.03;55.59;100822.78;5074320;28;1289;-56
2024/03/31 03:58:18;;;;;;;;;;;;;;;17.01;54.73;100822.97;5097266;28;1483;-52
2024/03/31 04:00:44;;;;;;;;;;;;;;;18.93;49.48;100821.13;5075728;28;1237;-51
2024/03/31 04:03:10;;;;;;;;;;;;;;;17.62;50.84;100823.97;5098174;28;1094;-48
2024/03/31 04:05:36;;;;;;;;;;;;;;;17.35;49.83;100825.13;5079844;28;1199;-48
2024/03/31 04:08:02;;;;;;;;;;;;;;;17.81;49.04;100832.44;5077237;28;1362;-48
2024/03/31 04:10:29;;;;;;;;;;;;;;;18.08;48.29;100834.81;5074904;28;1236;-50
2024/03/31 04:12:55;;;;;;;;;;;;;;;17.67;49.38;100834.97;5089111;28;1512;-51
2024/03/31 04:15:20;;;;;;;;;;;;;;;17.44;49.69;100823.44;5086029;28;1918;-49
2024/03/31 04:17:46;;;;;;;;;;;;;;;17.28;50.17;100835.59;5073786;28;1630;-49
2024/03/31 04:20:12;;;;;;;;;;;;;;;17.03;50.97;100828.19;5079869;28;1153;-52
2024/03/31 04:22:39;;;;;;;;;;;;;;;16.95;50.99;100831.50;5079063;28;1210;-52
2024/03/31 04:25:04;;;;;;;;;;;;;;;16.73;51.52;100844.34;5079693;28;1112;-46
2024/03/31 04:27:30;;;;;;;;;;;;;;;16.64;51.77;100835.00;5070402;28;1398;-48
2024/03/31 04:29:59;;;;;;;;;;;;;;;16.55;51.57;100842.94;5080008;28;1106;-50
2024/03/31 04:32:24;;;;;;;;;;;;;;;16.48;51.82;100842.41;5076839;28;1198;-50
2024/03/31 04:34:50;;;;;;;;;;;;;;;16.33;52.11;100843.16;5089244;28;1917;-48
2024/03/31 04:37:16;;;;;;;;;;;;;;;16.28;52.05;100828.63;5072522;28;1149;-51
2024/03/31 04:39:41;;;;;;;;;;;;;;;16.20;52.35;100838.19;5062443;28;1312;-51
2024/03/31 04:42:07;;;;;;;;;;;;;;;17.38;50.36;100835.56;5095795;28;943;-51
2024/03/31 04:44:32;;;;;;;;;;;;;;;17.47;49.77;100826.75;5079000;28;1138;-51
2024/03/31 04:46:58;;;;;;;;;;;;;;;16.86;51.55;100834.75;5079194;28;1338;-50
2024/03/31 04:49:24;;;;;;;;;;;;;;;16.56;52.09;100830.03;5066067;28;1228;-51
2024/03/31 04:51:50;;;;;;;;;;;;;;;16.36;52.69;100826.16;5078227;28;1396;-50
2024/03/31 04:54:22;;;;;;;;;;;;;;;16.30;52.63;100810.78;5075320;28;2028;-50
2024/03/31 04:56:48;;;;;;;;;;;;;;;17.15;51.23;100828.72;5070003;28;1251;-49
2024/03/31 04:59:17;;;;;;;;;;;;;;;17.64;49.42;100824.50;5072041;28;1148;-49
2024/03/31 05:01:42;;;;;;;;;;;;;;;16.87;51.61;100830.06;5073010;28;1122;-52
2024/03/31 05:04:08;;;;;;;;;;;;;;;16.59;52.25;100844.06;5072215;28;1138;-50
2024/03/31 05:06:34;;;;;;;;;;;;;;;16.40;52.52;100841.00;5078641;28;1268;-46
2024/03/31 05:09:00;;;;;;;;;;;;;;;16.31;52.63;100834.38;5076892;28;1070;-49
2024/03/31 05:11:26;;;;;;;;;;;;;;;16.96;51.78;100833.97;5078660;28;1428;-50
2024/03/31 05:13:53;;;;;;;;;;;;;;;17.93;49.01;100845.91;5075363;28;1909;-49
2024/03/31 05:16:19;;;;;;;;;;;;;;;16.95;51.36;100847.97;5067894;28;1278;-47
2024/03/31 05:18:45;;;;;;;;;;;;;;;16.65;52.30;100833.91;5078439;28;1481;-52
2024/03/31 05:21:14;;;;;;;;;;;;;;;16.46;52.41;100835.53;5076231;28;1141;-51
2024/03/31 05:23:42;;;;;;;;;;;;;;;16.29;53.04;100839.31;5075414;28;1181;-49
2024/03/31 05:26:10;;;;;;;;;;;;;;;17.51;50.38;100838.84;5078286;28;1209;-51
2024/03/31 05:28:37;;;;;;;;;;;;;;;17.37;50.38;100844.91;5074250;28;1391;-47
2024/03/31 05:31:03;;;;;;;;;;;;;;;16.80;51.90;100835.00;5069865;28;1325;-49
2024/03/31 05:33:34;;;;;;;;;;;;;;;16.54;52.66;100838.56;5060787;28;1910;-51
2024/03/31 05:35:59;;;;;;;;;;;;;;;16.49;52.55;100834.97;5069567;28;1884;-50
2024/03/31 05:38:25;;;;;;;;;;;;;;;16.30;53.16;100827.25;5065187;28;1150;-48
2024/03/31 05:41:01;;;;;;;;;;;;;;;17.83;49.62;100835.72;5078568;28;1360;-52
2024/03/31 05:43:26;;;;;;;;;;;;;;;17.23;50.92;100827.34;5071853;28;1285;-49
2024/03/31 05:45:52;;;;;;;;;;;;;;;16.84;51.89;100831.44;5069471;28;1576;-53
2024/03/31 05:48:18;;;;;;;;;;;;;;;16.56;52.70;100835.53;5076590;28;1409;-52
2024/03/31 05:50:49;;;;;;;;;;;;;;;16.39;53.04;100824.81;5072746;28;1327;-48
2024/03/31 05:53:15;;;;;;;;;;;;;;;17.10;51.78;100826.81;5063383;28;1914;-52
2024/03/31 05:55:41;;;;;;;;;;;;;;;17.75;49.61;100841.81;5073798;28;1126;-47
2024/03/31 05:58:06;;;;;;;;;;;;;;;17.01;51.66;100830.38;5061267;28;1114;-50
2024/03/31 06:00:32;;;;;;;;;;;;;;;16.73;52.44;100843.50;5075199;28;1209;-53
2024/03/31 06:02:57;;;;;;;;;;;;;;;16.51;52.72;100839.09;5066017;28;1511;-50
2024/03/31 06:05:23;;;;;;;;;;;;;;;16.42;53.00;100836.06;5093709;28;1053;-48
2024/03/31 06:07:49;;;;;;;;;;;;;;;16.46;53.30;100841.81;5077271;28;1319;-49
2024/03/31 06:10:14;;;;;;;;;;;;;;;17.90;49.69;100841.75;5072233;28;1268;-52
2024/03/31 06:12:40;;;;;;;;;;;;;;;17.22;51.08;100842.19;5078551;28;1284;-54
2024/03/31 06:15:06;;;;;;;;;;;;;;;16.89;52.09;100850.72;5065264;28;1913;-49
2024/03/31 06:17:32;;;;;;;;;;;;;;;16.60;52.76;100853.09;5071068;28;1167;-53
2024/03/31 06:19:58;;;;;;;;;;;;;;;16.43;52.99;100834.97;5071628;28;1276;-49
2024/03/31 06:22:23;;;;;;;;;;;;;;;16.37;52.95;100849.78;5076866;28;1269;-52
2024/03/31 06:24:49;;;;;;;;;;;;;;;17.41;50.95;100847.94;5077559;28;1216;-50
2024/03/31 06:27:14;;;;;;;;;;;;;;;17.76;49.78;100854.47;5057967;28;1497;-50
2024/03/31 06:29:41;;;;;;;;;;;;;;;17.06;51.50;100853.19;5071777;28;1181;-52
2024/03/31 06:32:07;;;;;;;;;;;;;;;16.75;52.34;100857.81;5078379;28;1157;-51
2024/03/31 06:34:33;;;;;;;;;;;;;;;16.54;53.06;100860.50;5069258;28;1914;-54
2024/03/31 06:36:59;;;;;;;;;;;;;;;16.67;52.85;100858.34;5078005;28;1114;-47
2024/03/31 06:39:24;;;;;;;;;;;;;;;18.04;49.55;100861.25;5082575;28;1174;-51
2024/03/31 06:41:50;;;;;;;;;;;;;;;17.27;51.26;100866.91;5064525;28;1103;-46
2024/03/31 06:44:16;;;;;;;;;;;;;;;16.86;52.05;100869.63;5077627;28;1340;-51
2024/03/31 06:46:41;;;;;;;;;;;;;;;16.69;52.53;100867.97;5095622;28;831;-50
2024/03/31 06:49:07;;;;;;;;;;;;;;;16.54;52.80;100867.94;5095369;28;1053;-51
2024/03/31 06:51:32;;;;;;;;;;;;;;;16.44;53.07;100871.47;5088002;28;1054;-53
2024/03/31 06:53:58;;;;;;;;;;;;;;;16.65;52.79;100860.53;5074304;28;1980;-54
2024/03/31 06:56:23;;;;;;;;;;;;;;;17.92;49.83;100858.00;5078085;28;1194;-48
2024/03/31 06:58:49;;;;;;;;;;;;;;;17.12;51.66;100865.00;5076820;28;1172;-48
2024/03/31 07:01:16;;;;;;;;;;;;;;;16.73;52.67;100860.84;5080666;28;1122;-48
2024/03/31 07:03:41;;;;;;;;;;;;;;;16.61;52.80;100857.50;5066915;28;1182;-54
2024/03/31 07:06:07;;;;;;;;;;;;;;;16.45;53.32;100856.63;5069407;28;1107;-49
2024/03/31 07:08:37;;;;;;;;;;;;;;;16.30;53.37;100862.09;5080560;28;1403;-54
2024/03/31 07:11:02;;;;;;;;;;;;;;;16.40;53.52;100868.44;5065144;28;1399;-48
2024/03/31 07:13:28;;;;;;;;;;;;;;;17.84;50.35;100858.53;5074513;28;1971;-52
2024/03/31 07:15:54;;;;;;;;;;;;;;;17.30;51.35;100862.78;5081008;28;1268;-51
2024/03/31 07:18:19;;;;;;;;;;;;;;;16.86;52.53;100869.63;5067877;28;1923;-52
2024/03/31 07:20:45;;;;;;;;;;;;;;;16.62;53.04;100870.16;5098902;28;1127;-51
2024/03/31 07:23:10;;;;;;;;;;;;;;;16.47;53.22;100870.13;5080669;28;1894;-50
2024/03/31 07:25:36;;;;;;;;;;;;;;;16.40;53.62;100870.38;5080820;28;1582;-51
2024/03/31 07:28:02;;;;;;;;;;;;;;;17.03;52.15;100875.72;5072059;28;1340;-50
2024/03/31 07:30:28;;;;;;;;;;;;;;;17.88;50.11;100876.97;5073607;28;1349;-51
2024/03/31 07:32:54;;;;;;;;;;;;;;;17.10;51.91;100878.19;5067089;28;1630;-50
2024/03/31 07:35:19;;;;;;;;;;;;;;;16.80;52.48;100878.94;5092891;28;1987;-50
2024/03/31 07:37:45;;;;;;;;;;;;;;;16.63;52.88;100870.97;5098987;28;984;-48
2024/03/31 07:40:11;;;;;;;;;;;;;;;16.43;53.49;100867.06;5098217;28;1042;-49
2024/03/31 07:42:36;;;;;;;;;;;;;;;16.38;53.49;100872.53;5087663;28;1169;-51
2024/03/31 07:45:02;;;;;;;;;;;;;;;17.43;51.35;100863.06;5094428;28;1112;-50
2024/03/31 07:47:28;;;;;;;;;;;;;;;17.56;50.75;100863.59;5088653;28;1605;-51
2024/03/31 07:49:53;;;;;;;;;;;;;;;16.96;52.31;100866.91;5092914;28;1122;-49
2024/03/31 07:52:19;;;;;;;;;;;;;;;16.72;52.98;100861.91;5097268;28;1077;-47
2024/03/31 07:54:44;;;;;;;;;;;;;;;16.54;53.05;100856.97;5095928;28;1901;-48
2024/03/31 07:57:10;;;;;;;;;;;;;;;16.41;53.71;100861.00;5098285;28;1181;-48
2024/03/31 07:59:35;;;;;;;;;;;;;;;16.33;53.41;100858.81;5094163;28;865;-49
2024/03/31 08:02:01;;;;;;;;;;;;;;;17.06;52.51;100860.59;5097948;28;1042;-52
2024/03/31 08:04:26;;;;;;;;;;;;;;;18.02;49.65;100855.22;5092969;28;1433;-48
2024/03/31 08:06:52;;;;;;;;;;;;;;;17.20;51.65;100847.94;5097543;28;1117;-49
2024/03/31 08:09:17;;;;;;;;;;;;;;;16.82;52.54;100860.28;5095593;28;1141;-48
2024/03/31 08:11:44;;;;;;;;;;;;;;;16.63;53.15;100852.56;5088390;28;1035;-49
2024/03/31 08:14:11;;;;;;;;;;;;;;;16.53;53.14;100858.03;5096685;28;1914;-50
2024/03/31 08:16:37;;;;;;;;;;;;;;;16.37;53.75;100846.22;5093112;28;1331;-48
2024/03/31 08:19:02;;;;;;;;;;;;;;;16.32;53.72;100849.75;5092876;28;1316;-52
2024/03/31 08:21:28;;;;;;;;;;;;;;;17.39;51.50;100850.97;5085832;28;1014;-46
2024/03/31 08:23:53;;;;;;;;;;;;;;;17.68;50.60;100855.84;5096048;28;1194;-51
2024/03/31 08:26:19;;;;;;;;;;;;;;;16.99;52.38;100863.63;5087611;28;1170;-51
2024/03/31 08:28:44;;;;;;;;;;;;;;;16.71;53.13;100856.72;5089011;28;1086;-50
2024/03/31 08:31:10;;;;;;;;;;;;;;;16.60;53.18;100862.16;5096348;28;1333;-51
2024/03/31 08:33:35;;;;;;;;;;;;;;;16.45;53.57;100861.31;5093897;28;1981;-46
2024/03/31 08:36:01;;;;;;;;;;;;;;;16.36;53.64;100855.53;5088961;28;1053;-49
2024/03/31 08:38:26;;;;;;;;;;;;;;;17.53;51.33;100853.97;5095389;28;1221;-49
2024/03/31 08:40:55;;;;;;;;;;;;;;;17.52;51.18;100854.25;5086094;28;853;-49
2024/03/31 08:43:21;;;;;;;;;;;;;;;16.95;52.75;100848.78;5076448;28;1032;-48
2024/03/31 08:45:47;;;;;;;;;;;;;;;16.76;53.15;100860.28;5097433;28;1037;-50
2024/03/31 08:48:13;;;;;;;;;;;;;;;16.58;53.56;100856.13;5093046;28;1238;-49
2024/03/31 08:50:38;;;;;;;;;;;;;;;16.48;53.56;100845.13;5091715;28;1346;-49
2024/03/31 08:53:04;;;;;;;;;;;;;;;16.42;53.73;100847.06;5069166;28;1290;-51
2024/03/31 08:55:29;;;;;;;;;;;;;;;17.55;51.29;100851.75;5097171;28;1980;-46
2024/03/31 08:57:55;;;;;;;;;;;;;;;17.70;50.49;100850.91;5097093;28;1026;-48
2024/03/31 09:00:20;;;;;;;;;;;;;;;17.05;52.15;100843.28;5083916;28;1405;-50
2024/03/31 09:02:46;;;;;;;;;;;;;;;16.78;53.11;100843.53;5071472;28;1518;-48
2024/03/31 09:05:11;;;;;;;;;;;;;;;16.65;53.33;100839.41;5070628;28;1090;-50
2024/03/31 09:07:37;;;;;;;;;;;;;;;16.51;53.38;100843.75;5096906;28;900;-48
2024/03/31 09:10:03;;;;;;;;;;;;;;;16.48;53.64;100836.06;5089953;28;1254;-48
2024/03/31 09:12:29;;;;;;;;;;;;;;;16.38;53.85;100840.44;5086391;28;1029;-48
2024/03/31 09:14:54;;;;;;;;;;;;;;;17.61;51.38;100838.81;5097102;28;1909;-48
2024/03/31 09:17:20;;;;;;;;;;;;;;;17.39;51.48;100836.38;5094545;28;1058;-49
2024/03/31 09:19:45;;;;;;;;;;;;;;;17.01;52.57;100835.88;5096462;28;1169;-47
2024/03/31 09:22:14;;;;;;;;;;;;;;;16.72;53.31;100830.91;5096621;28;1096;-50
2024/03/31 09:24:41;;;;;;;;;;;;;;;16.58;53.59;100839.66;5087197;28;1150;-47
2024/03/31 09:27:06;;;;;;;;;;;;;;;16.50;53.65;100826.47;5075189;28;1381;-47
2024/03/31 09:29:32;;;;;;;;;;;;;;;16.36;53.88;100820.66;5097020;28;1069;-51
2024/03/31 09:32:07;;;;;;;;;;;;;;;16.38;54.02;100818.50;5091206;28;1125;-49
2024/03/31 09:34:32;;;;;;;;;;;;;;;17.48;51.57;100815.47;5078846;28;1914;-50
2024/03/31 09:36:58;;;;;;;;;;;;;;;17.57;50.94;100815.72;5093110;28;1026;-48
2024/03/31 09:39:24;;;;;;;;;;;;;;;17.03;52.59;100812.53;5096397;28;1109;-49
2024/03/31 09:41:53;;;;;;;;;;;;;;;16.78;53.08;100818.81;5083014;28;1038;-49
2024/03/31 09:44:19;;;;;;;;;;;;;;;16.58;53.66;100809.47;5065157;28;1155;-50
2024/03/31 09:46:44;;;;;;;;;;;;;;;16.47;54.05;100812.47;5096487;28;1105;-49
2024/03/31 09:49:10;;;;;;;;;;;;;;;16.40;54.19;100808.06;5096001;28;856;-48
2024/03/31 09:51:36;;;;;;;;;;;;;;;16.38;54.06;100806.69;5092747;28;1208;-50
2024/03/31 09:54:16;;;;;;;;;;;;;;;17.32;52.22;100813.84;5078032;28;1976;-49
2024/03/31 09:56:44;;;;;;;;;;;;;;;17.73;50.70;100802.78;5067289;28;1409;-47
2024/03/31 09:59:10;;;;;;;;;;;;;;;17.14;52.30;100813.34;5096149;28;1074;-48
2024/03/31 10:01:38;;;;;;;;;;;;;;;16.83;53.09;100807.84;5085854;28;1011;-47
2024/03/31 10:04:16;;;;;;;;;;;;;;;16.68;53.59;100814.13;5078156;28;1148;-47
2024/03/31 10:06:42;;;;;;;;;;;;;;;16.55;53.90;100812.75;5094319;28;1162;-51
2024/03/31 10:09:07;;;;;;;;;;;;;;;16.49;53.78;100807.53;5066571;28;1190;-48
2024/03/31 10:11:33;;;;;;;;;;;;;;;16.37;54.24;100810.53;5066533;28;1312;-48
2024/03/31 10:13:58;;;;;;;;;;;;;;;16.31;54.18;100809.69;5096172;28;1974;-47
2024/03/31 10:16:24;;;;;;;;;;;;;;;17.35;52.01;100803.16;5093322;28;1066;-50
2024/03/31 10:18:49;;;;;;;;;;;;;;;17.57;51.16;100796.47;5077627;28;1276;-52
2024/03/31 10:21:15;;;;;;;;;;;;;;;17.05;52.44;100795.75;5067425;28;1086;-51
2024/03/31 10:23:41;;;;;;;;;;;;;;;16.83;53.08;100790.53;5058974;28;1126;-47
2024/03/31 10:26:07;;;;;;;;;;;;;;;16.68;53.67;100800.41;5068624;28;1146;-49
2024/03/31 10:28:32;;;;;;;;;;;;;;;16.57;53.82;100793.25;5082630;28;1079;-52
2024/03/31 10:30:58;;;;;;;;;;;;;;;16.52;53.98;100791.34;5072594;28;1262;-50
2024/03/31 10:33:24;;;;;;;;;;;;;;;16.45;54.15;100795.44;5093310;28;1901;-50
2024/03/31 10:35:49;;;;;;;;;;;;;;;16.33;54.28;100788.28;5079068;28;1138;-50
2024/03/31 10:38:17;;;;;;;;;;;;;;;16.75;53.75;100779.00;5079545;28;1213;-46
2024/03/31 10:40:42;;;;;;;;;;;;;;;17.92;50.42;100772.72;5074419;28;1399;-51
2024/03/31 10:43:08;;;;;;;;;;;;;;;17.18;52.07;100780.63;5068833;28;1174;-53
2024/03/31 10:45:33;;;;;;;;;;;;;;;16.84;53.15;100775.69;5095034;28;1292;-48
2024/03/31 10:47:59;;;;;;;;;;;;;;;16.72;53.52;100770.50;5078759;28;1142;-46
2024/03/31 10:50:24;;;;;;;;;;;;;;;16.59;53.69;100769.94;5078513;28;1528;-51
2024/03/31 10:52:50;;;;;;;;;;;;;;;16.58;53.78;100772.97;5099259;28;1104;-53
2024/03/31 10:55:17;;;;;;;;;;;;;;;16.42;54.20;100770.22;5099561;28;1909;-48
2024/03/31 10:57:42;;;;;;;;;;;;;;;16.37;54.24;100772.13;5096255;28;1158;-50
2024/03/31 11:00:08;;;;;;;;;;;;;;;16.22;54.67;100772.91;5094552;28;1037;-46
2024/03/31 11:02:34;;;;;;;;;;;;;;;16.70;53.94;100765.25;5095301;28;1034;-52
2024/03/31 11:05:03;;;;;;;;;;;;;;;17.92;50.76;100768.06;5098449;28;1194;-46
2024/03/31 11:07:31;;;;;;;;;;;;;;;17.12;52.45;100762.50;5097582;28;896;-50
2024/03/31 11:09:56;;;;;;;;;;;;;;;16.74;53.70;100766.34;5099047;28;1235;-49
2024/03/31 11:12:22;;;;;;;;;;;;;;;16.54;54.00;100771.84;5099163;28;1105;-47
2024/03/31 11:14:48;;;;;;;;;;;;;;;16.53;54.33;100767.47;5081262;28;1976;-45
2024/03/31 11:17:13;;;;;;;;;;;;;;;16.41;54.37;100759.47;5098780;28;1010;-49
2024/03/31 11:19:39;;;;;;;;;;;;;;;16.28;54.79;100760.84;5099180;28;1065;-50
2024/03/31 11:22:05;;;;;;;;;;;;;;;16.22;54.74;100749.03;5085624;28;1193;-45
2024/03/31 11:24:30;;;;;;;;;;;;;;;16.31;54.52;100752.03;5092542;28;1173;-47
2024/03/31 11:26:56;;;;;;;;;;;;;;;17.77;51.41;100748.84;5098962;28;1038;-48
2024/03/31 11:29:21;;;;;;;;;;;;;;;17.33;52.21;100747.63;5098925;28;1451;-47
2024/03/31 11:31:47;;;;;;;;;;;;;;;16.86;53.40;100744.13;5098903;28;1006;-47
2024/03/31 11:34:13;;;;;;;;;;;;;;;16.67;54.06;100740.28;5086220;28;1973;-48
2024/03/31 11:36:39;;;;;;;;;;;;;;;16.56;54.24;100739.44;5097826;28;1161;-51
2024/03/31 11:39:04;;;;;;;;;;;;;;;16.48;54.23;100735.34;5076974;28;1155;-52
2024/03/31 11:41:30;;;;;;;;;;;;;;;16.31;54.74;100741.06;5074161;28;1449;-50
2024/03/31 11:43:55;;;;;;;;;;;;;;;16.24;54.70;100735.03;5094390;28;1360;-51
2024/03/31 11:46:21;;;;;;;;;;;;;;;16.19;54.82;100741.34;5078712;28;1003;-51
2024/03/31 11:48:46;;;;;;;;;;;;;;;16.17;54.78;100740.81;5091435;28;1030;-46
2024/03/31 11:51:12;;;;;;;;;;;;;;;17.55;51.85;100735.47;5098397;28;1129;-53
2024/03/31 11:53:37;;;;;;;;;;;;;;;17.55;51.65;100735.47;5098496;28;1976;-52
2024/03/31 11:56:06;;;;;;;;;;;;;;;16.97;53.19;100731.22;5098890;28;1069;-52
2024/03/31 11:58:35;;;;;;;;;;;;;;;16.71;53.93;100736.69;5077930;28;1493;-48
2024/03/31 12:01:00;;;;;;;;;;;;;;;16.57;54.24;100724.63;5085145;28;1031;-48
2024/03/31 12:03:26;;;;;;;;;;;;;;;16.48;54.62;100729.03;5091099;28;1351;-46
2024/03/31 12:05:51;;;;;;;;;;;;;;;16.32;54.72;100726.25;5094999;28;1331;-50
2024/03/31 12:08:18;;;;;;;;;;;;;;;16.23;54.80;100731.47;5084712;28;1272;-51
2024/03/31 12:10:46;;;;;;;;;;;;;;;16.28;54.81;100718.84;5076647;28;1187;-53
2024/03/31 12:13:12;;;;;;;;;;;;;;;16.17;55.15;100727.09;5098030;28;1523;-51
2024/03/31 12:15:38;;;;;;;;;;;;;;;16.73;54.15;100722.69;5090028;28;1984;-54
2024/03/31 12:18:04;;;;;;;;;;;;;;;17.98;50.91;100711.06;5097992;28;1034;-55
2024/03/31 12:20:29;;;;;;;;;;;;;;;17.15;52.86;100716.06;5098011;28;1065;-46
2024/03/31 12:22:55;;;;;;;;;;;;;;;16.84;53.79;100715.28;5098170;28;1070;-47
2024/03/31 12:25:20;;;;;;;;;;;;;;;16.68;54.25;100711.75;5095061;28;1184;-51
2024/03/31 12:27:46;;;;;;;;;;;;;;;16.48;54.66;100709.81;5098207;28;1187;-47
2024/03/31 12:30:11;;;;;;;;;;;;;;;16.38;54.74;100700.50;5060218;28;1090;-50
2024/03/31 12:32:37;;;;;;;;;;;;;;;16.36;54.99;100701.84;5077335;28;1230;-51
2024/03/31 12:35:04;;;;;;;;;;;;;;;16.24;55.06;100702.94;5078331;28;1909;-49
2024/03/31 12:37:30;;;;;;;;;;;;;;;16.23;55.10;100705.97;5091681;28;1367;-51
2024/03/31 12:39:56;;;;;;;;;;;;;;;16.18;55.05;100704.03;5083101;28;1256;-48
2024/03/31 12:42:30;;;;;;;;;;;;;;;17.47;52.52;100706.63;5096265;28;1023;-52